sensor_id;sensor_type;location;lat;lon;timestamp;temperature;humidity
78611;SHT30;67932;50.474;4.436;2023-05-07T00:01:08;14.83;80.34
78611;SHT30;67932;50.474;4.436;2023-05-07T00:03:34;14.77;80.79
78611;SHT30;67932;50.474;4.436;2023-05-07T00:06:00;14.75;81.18
78611;SHT30;67932;50.474;4.436;2023-05-07T00:08:27;14.77;80.77
78611;SHT30;67932;50.474;4.436;2023-05-07T00:10:53;14.81;79.93
78611;SHT30;67932;50.474;4.436;2023-05-07T00:13:19;14.84;79.75
78611;SHT30;67932;50.474;4.436;2023-05-07T00:15:45;14.86;79.88
78611;SHT30;67932;50.474;4.436;2023-05-07T00:18:12;14.86;79.86
78611;SHT30;67932;50.474;4.436;2023-05-07T00:20:38;14.81;79.79
78611;SHT30;67932;50.474;4.436;2023-05-07T00:23:04;14.86;79.94
78611;SHT30;67932;50.474;4.436;2023-05-07T00:25:30;14.86;80.13
78611;SHT30;67932;50.474;4.436;2023-05-07T00:27:57;14.89;79.42
78611;SHT30;67932;50.474;4.436;2023-05-07T00:30:28;14.86;79.04
78611;SHT30;67932;50.474;4.436;2023-05-07T00:32:54;14.86;79.11
78611;SHT30;67932;50.474;4.436;2023-05-07T00:35:21;14.83;79.02
78611;SHT30;67932;50.474;4.436;2023-05-07T00:37:47;14.79;78.98
78611;SHT30;67932;50.474;4.436;2023-05-07T00:40:14;14.69;79.42
78611;SHT30;67932;50.474;4.436;2023-05-07T00:42:40;14.65;80.13
78611;SHT30;67932;50.474;4.436;2023-05-07T00:45:07;14.53;80.29
78611;SHT30;67932;50.474;4.436;2023-05-07T00:47:34;14.45;80.20
78611;SHT30;67932;50.474;4.436;2023-05-07T00:50:00;14.43;80.09
78611;SHT30;67932;50.474;4.436;2023-05-07T00:52:26;14.40;79.96
78611;SHT30;67932;50.474;4.436;2023-05-07T00:54:54;14.43;79.61
78611;SHT30;67932;50.474;4.436;2023-05-07T00:57:21;14.40;79.26
78611;SHT30;67932;50.474;4.436;2023-05-07T00:59:48;14.40;79.20
78611;SHT30;67932;50.474;4.436;2023-05-07T01:02:15;14.35;79.58
78611;SHT30;67932;50.474;4.436;2023-05-07T01:04:41;14.30;80.19
78611;SHT30;67932;50.474;4.436;2023-05-07T01:07:08;14.26;80.46
78611;SHT30;67932;50.474;4.436;2023-05-07T01:09:35;14.26;79.60
78611;SHT30;67932;50.474;4.436;2023-05-07T01:12:02;14.25;79.96
78611;SHT30;67932;50.474;4.436;2023-05-07T01:14:29;14.18;79.46
78611;SHT30;67932;50.474;4.436;2023-05-07T01:16:56;14.13;79.82
78611;SHT30;67932;50.474;4.436;2023-05-07T01:19:23;14.13;79.51
78611;SHT30;67932;50.474;4.436;2023-05-07T01:21:49;14.11;79.50
78611;SHT30;67932;50.474;4.436;2023-05-07T01:24:17;14.06;80.37
78611;SHT30;67932;50.474;4.436;2023-05-07T01:26:44;14.01;80.34
78611;SHT30;67932;50.474;4.436;2023-05-07T01:29:11;13.98;80.85
78611;SHT30;67932;50.474;4.436;2023-05-07T01:31:38;13.97;80.87
78611;SHT30;67932;50.474;4.436;2023-05-07T01:34:07;13.98;80.07
78611;SHT30;67932;50.474;4.436;2023-05-07T01:36:35;14.01;80.81
78611;SHT30;67932;50.474;4.436;2023-05-07T01:39:02;13.97;80.61
78611;SHT30;67932;50.474;4.436;2023-05-07T01:41:29;13.91;80.79
78611;SHT30;67932;50.474;4.436;2023-05-07T01:43:55;13.85;81.39
78611;SHT30;67932;50.474;4.436;2023-05-07T01:46:22;13.82;81.95
78611;SHT30;67932;50.474;4.436;2023-05-07T01:48:49;13.86;81.91
78611;SHT30;67932;50.474;4.436;2023-05-07T01:51:15;13.85;81.90
78611;SHT30;67932;50.474;4.436;2023-05-07T01:53:42;13.82;81.71
78611;SHT30;67932;50.474;4.436;2023-05-07T01:56:09;13.78;82.33
78611;SHT30;67932;50.474;4.436;2023-05-07T01:58:36;13.72;82.51
78611;SHT30;67932;50.474;4.436;2023-05-07T02:01:02;13.68;82.74
78611;SHT30;67932;50.474;4.436;2023-05-07T02:03:28;13.68;82.91
78611;SHT30;67932;50.474;4.436;2023-05-07T02:05:54;13.62;83.12
78611;SHT30;67932;50.474;4.436;2023-05-07T02:08:21;13.62;83.04
78611;SHT30;67932;50.474;4.436;2023-05-07T02:10:47;13.64;82.69
78611;SHT30;67932;50.474;4.436;2023-05-07T02:13:13;13.70;82.46
78611;SHT30;67932;50.474;4.436;2023-05-07T02:15:39;13.70;82.67
78611;SHT30;67932;50.474;4.436;2023-05-07T02:18:07;13.68;82.79
78611;SHT30;67932;50.474;4.436;2023-05-07T02:20:35;13.68;82.85
78611;SHT30;67932;50.474;4.436;2023-05-07T02:23:01;13.75;82.78
78611;SHT30;67932;50.474;4.436;2023-05-07T02:25:27;13.72;82.67
78611;SHT30;67932;50.474;4.436;2023-05-07T02:27:55;13.70;82.85
78611;SHT30;67932;50.474;4.436;2023-05-07T02:30:21;13.70;82.85
78611;SHT30;67932;50.474;4.436;2023-05-07T02:32:47;13.71;82.74
78611;SHT30;67932;50.474;4.436;2023-05-07T02:35:14;13.70;82.80
78611;SHT30;67932;50.474;4.436;2023-05-07T02:37:40;13.75;82.80
78611;SHT30;67932;50.474;4.436;2023-05-07T02:40:06;13.77;82.24
78611;SHT30;67932;50.474;4.436;2023-05-07T02:42:33;13.85;81.99
78611;SHT30;67932;50.474;4.436;2023-05-07T02:44:59;13.86;81.65
78611;SHT30;67932;50.474;4.436;2023-05-07T02:47:25;13.92;80.96
78611;SHT30;67932;50.474;4.436;2023-05-07T02:49:55;13.92;81.95
78611;SHT30;67932;50.474;4.436;2023-05-07T02:52:22;13.88;82.35
78611;SHT30;67932;50.474;4.436;2023-05-07T02:54:48;13.86;82.46
78611;SHT30;67932;50.474;4.436;2023-05-07T02:57:14;13.85;82.09
78611;SHT30;67932;50.474;4.436;2023-05-07T02:59:41;13.81;82.26
78611;SHT30;67932;50.474;4.436;2023-05-07T03:02:07;13.82;82.02
78611;SHT30;67932;50.474;4.436;2023-05-07T03:04:34;13.88;82.34
78611;SHT30;67932;50.474;4.436;2023-05-07T03:07:00;13.91;81.36
78611;SHT30;67932;50.474;4.436;2023-05-07T03:09:26;14.00;82.38
78611;SHT30;67932;50.474;4.436;2023-05-07T03:11:52;14.00;82.03
78611;SHT30;67932;50.474;4.436;2023-05-07T03:14:18;14.05;82.08
78611;SHT30;67932;50.474;4.436;2023-05-07T03:16:45;14.08;82.22
78611;SHT30;67932;50.474;4.436;2023-05-07T03:19:11;14.04;82.13
78611;SHT30;67932;50.474;4.436;2023-05-07T03:21:37;14.02;82.50
78611;SHT30;67932;50.474;4.436;2023-05-07T03:24:04;14.02;82.44
78611;SHT30;67932;50.474;4.436;2023-05-07T03:26:30;14.09;81.16
78611;SHT30;67932;50.474;4.436;2023-05-07T03:28:56;14.19;80.74
78611;SHT30;67932;50.474;4.436;2023-05-07T03:31:22;14.19;81.80
78611;SHT30;67932;50.474;4.436;2023-05-07T03:33:53;14.26;81.18
78611;SHT30;67932;50.474;4.436;2023-05-07T03:36:20;14.30;81.02
78611;SHT30;67932;50.474;4.436;2023-05-07T03:38:47;14.29;80.75
78611;SHT30;67932;50.474;4.436;2023-05-07T03:41:13;14.28;80.62
78611;SHT30;67932;50.474;4.436;2023-05-07T03:43:40;14.29;80.86
78611;SHT30;67932;50.474;4.436;2023-05-07T03:46:06;14.26;81.13
78611;SHT30;67932;50.474;4.436;2023-05-07T03:48:32;14.29;81.03
78611;SHT30;67932;50.474;4.436;2023-05-07T03:50:59;14.30;80.46
78611;SHT30;67932;50.474;4.436;2023-05-07T03:53:25;14.32;80.90
78611;SHT30;67932;50.474;4.436;2023-05-07T03:55:51;14.28;81.01
78611;SHT30;67932;50.474;4.436;2023-05-07T03:58:18;14.19;82.09
78611;SHT30;67932;50.474;4.436;2023-05-07T04:00:44;14.19;82.36
78611;SHT30;67932;50.474;4.436;2023-05-07T04:03:10;14.13;82.59
78611;SHT30;67932;50.474;4.436;2023-05-07T04:05:37;14.08;82.48
78611;SHT30;67932;50.474;4.436;2023-05-07T04:08:03;14.05;82.62
78611;SHT30;67932;50.474;4.436;2023-05-07T04:10:30;14.05;83.08
78611;SHT30;67932;50.474;4.436;2023-05-07T04:12:56;14.05;82.97
78611;SHT30;67932;50.474;4.436;2023-05-07T04:15:23;14.04;82.69
78611;SHT30;67932;50.474;4.436;2023-05-07T04:17:50;14.00;82.56
78611;SHT30;67932;50.474;4.436;2023-05-07T04:20:17;14.02;82.38
78611;SHT30;67932;50.474;4.436;2023-05-07T04:22:44;14.02;82.23
78611;SHT30;67932;50.474;4.436;2023-05-07T04:25:10;14.00;82.77
78611;SHT30;67932;50.474;4.436;2023-05-07T04:27:36;14.00;82.50
78611;SHT30;67932;50.474;4.436;2023-05-07T04:30:04;14.06;82.43
78611;SHT30;67932;50.474;4.436;2023-05-07T04:32:30;14.02;82.63
78611;SHT30;67932;50.474;4.436;2023-05-07T04:34:57;14.01;82.79
78611;SHT30;67932;50.474;4.436;2023-05-07T04:37:24;14.04;83.02
78611;SHT30;67932;50.474;4.436;2023-05-07T04:39:51;14.04;82.50
78611;SHT30;67932;50.474;4.436;2023-05-07T04:42:17;14.09;82.56
78611;SHT30;67932;50.474;4.436;2023-05-07T04:44:45;14.12;82.43
78611;SHT30;67932;50.474;4.436;2023-05-07T04:47:12;14.15;82.34
78611;SHT30;67932;50.474;4.436;2023-05-07T04:49:39;14.22;81.78
78611;SHT30;67932;50.474;4.436;2023-05-07T04:52:05;14.22;81.21
78611;SHT30;67932;50.474;4.436;2023-05-07T04:54:31;14.29;81.81
78611;SHT30;67932;50.474;4.436;2023-05-07T04:56:57;14.29;81.75
78611;SHT30;67932;50.474;4.436;2023-05-07T04:59:24;14.30;81.64
78611;SHT30;67932;50.474;4.436;2023-05-07T05:01:50;14.29;81.36
78611;SHT30;67932;50.474;4.436;2023-05-07T05:04:16;14.29;81.04
78611;SHT30;67932;50.474;4.436;2023-05-07T05:06:42;14.39;81.12
78611;SHT30;67932;50.474;4.436;2023-05-07T05:09:09;14.39;80.72
78611;SHT30;67932;50.474;4.436;2023-05-07T05:11:35;14.43;81.01
78611;SHT30;67932;50.474;4.436;2023-05-07T05:14:02;14.46;81.41
78611;SHT30;67932;50.474;4.436;2023-05-07T05:16:28;14.49;81.59
78611;SHT30;67932;50.474;4.436;2023-05-07T05:18:54;14.49;81.06
78611;SHT30;67932;50.474;4.436;2023-05-07T05:21:21;14.52;81.63
78611;SHT30;67932;50.474;4.436;2023-05-07T05:23:47;14.53;81.05
78611;SHT30;67932;50.474;4.436;2023-05-07T05:26:14;14.60;80.36
78611;SHT30;67932;50.474;4.436;2023-05-07T05:28:40;14.59;80.20
78611;SHT30;67932;50.474;4.436;2023-05-07T05:31:06;14.63;80.25
78611;SHT30;67932;50.474;4.436;2023-05-07T05:33:32;14.65;80.31
78611;SHT30;67932;50.474;4.436;2023-05-07T05:35:59;14.77;78.30
78611;SHT30;67932;50.474;4.436;2023-05-07T05:38:25;14.46;81.26
78611;SHT30;67932;50.474;4.436;2023-05-07T05:40:51;14.16;82.71
78611;SHT30;67932;50.474;4.436;2023-05-07T05:43:18;14.18;82.67
78611;SHT30;67932;50.474;4.436;2023-05-07T05:45:44;14.23;82.68
78611;SHT30;67932;50.474;4.436;2023-05-07T05:48:10;14.22;83.36
78611;SHT30;67932;50.474;4.436;2023-05-07T05:50:36;14.16;83.83
78611;SHT30;67932;50.474;4.436;2023-05-07T05:53:03;14.18;83.93
78611;SHT30;67932;50.474;4.436;2023-05-07T05:55:29;14.15;84.63
78611;SHT30;67932;50.474;4.436;2023-05-07T05:57:59;14.13;84.81
78611;SHT30;67932;50.474;4.436;2023-05-07T06:00:26;14.16;85.52
78611;SHT30;67932;50.474;4.436;2023-05-07T06:02:52;14.19;84.86
78611;SHT30;67932;50.474;4.436;2023-05-07T06:05:19;14.18;85.20
78611;SHT30;67932;50.474;4.436;2023-05-07T06:07:45;14.12;86.28
78611;SHT30;67932;50.474;4.436;2023-05-07T06:10:11;14.15;86.19
78611;SHT30;67932;50.474;4.436;2023-05-07T06:12:38;14.22;85.84
78611;SHT30;67932;50.474;4.436;2023-05-07T06:15:04;14.18;86.08
78611;SHT30;67932;50.474;4.436;2023-05-07T06:17:31;14.19;86.10
78611;SHT30;67932;50.474;4.436;2023-05-07T06:19:57;14.26;86.12
78611;SHT30;67932;50.474;4.436;2023-05-07T06:22:24;14.28;86.05
78611;SHT30;67932;50.474;4.436;2023-05-07T06:24:50;14.28;86.35
78611;SHT30;67932;50.474;4.436;2023-05-07T06:27:16;14.26;86.49
78611;SHT30;67932;50.474;4.436;2023-05-07T06:29:42;14.25;86.91
78611;SHT30;67932;50.474;4.436;2023-05-07T06:32:12;14.30;87.06
78611;SHT30;67932;50.474;4.436;2023-05-07T06:34:39;14.25;87.19
78611;SHT30;67932;50.474;4.436;2023-05-07T06:37:06;14.23;87.98
78611;SHT30;67932;50.474;4.436;2023-05-07T06:39:33;14.26;88.23
78611;SHT30;67932;50.474;4.436;2023-05-07T06:42:00;14.36;88.12
78611;SHT30;67932;50.474;4.436;2023-05-07T06:44:26;14.42;87.66
78611;SHT30;67932;50.474;4.436;2023-05-07T06:46:52;14.40;88.04
78611;SHT30;67932;50.474;4.436;2023-05-07T06:49:19;14.40;88.20
78611;SHT30;67932;50.474;4.436;2023-05-07T06:51:45;14.40;87.93
78611;SHT30;67932;50.474;4.436;2023-05-07T06:54:11;14.35;88.85
78611;SHT30;67932;50.474;4.436;2023-05-07T06:56:37;14.42;89.13
78611;SHT30;67932;50.474;4.436;2023-05-07T06:59:04;14.49;89.14
78611;SHT30;67932;50.474;4.436;2023-05-07T07:01:30;14.53;88.79
78611;SHT30;67932;50.474;4.436;2023-05-07T07:03:56;14.49;88.99
78611;SHT30;67932;50.474;4.436;2023-05-07T07:06:22;14.59;89.24
78611;SHT30;67932;50.474;4.436;2023-05-07T07:08:49;14.69;88.36
78611;SHT30;67932;50.474;4.436;2023-05-07T07:11:15;14.57;88.95
78611;SHT30;67932;50.474;4.436;2023-05-07T07:13:41;14.66;89.15
78611;SHT30;67932;50.474;4.436;2023-05-07T07:16:09;14.65;89.48
78611;SHT30;67932;50.474;4.436;2023-05-07T07:18:35;14.66;89.44
78611;SHT30;67932;50.474;4.436;2023-05-07T07:21:01;14.67;88.90
78611;SHT30;67932;50.474;4.436;2023-05-07T07:23:28;14.67;88.98
78611;SHT30;67932;50.474;4.436;2023-05-07T07:25:54;14.73;89.84
78611;SHT30;67932;50.474;4.436;2023-05-07T07:28:21;14.70;88.75
78611;SHT30;67932;50.474;4.436;2023-05-07T07:30:48;14.72;88.92
78611;SHT30;67932;50.474;4.436;2023-05-07T07:33:14;14.75;88.51
78611;SHT30;67932;50.474;4.436;2023-05-07T07:35:40;14.70;88.92
78611;SHT30;67932;50.474;4.436;2023-05-07T07:38:06;14.63;89.57
78611;SHT30;67932;50.474;4.436;2023-05-07T07:40:35;14.76;89.46
78611;SHT30;67932;50.474;4.436;2023-05-07T07:43:01;14.70;89.36
78611;SHT30;67932;50.474;4.436;2023-05-07T07:45:28;14.59;89.80
78611;SHT30;67932;50.474;4.436;2023-05-07T07:47:54;14.60;89.69
78611;SHT30;67932;50.474;4.436;2023-05-07T07:50:21;14.70;90.04
78611;SHT30;67932;50.474;4.436;2023-05-07T07:52:48;14.56;90.18
78611;SHT30;67932;50.474;4.436;2023-05-07T07:55:14;14.56;90.70
78611;SHT30;67932;50.474;4.436;2023-05-07T07:57:44;14.67;90.87
78611;SHT30;67932;50.474;4.436;2023-05-07T08:00:10;14.66;90.96
78611;SHT30;67932;50.474;4.436;2023-05-07T08:02:37;14.67;91.83
78611;SHT30;67932;50.474;4.436;2023-05-07T08:05:03;14.63;92.12
78611;SHT30;67932;50.474;4.436;2023-05-07T08:07:29;14.67;91.85
78611;SHT30;67932;50.474;4.436;2023-05-07T08:09:56;14.65;92.12
78611;SHT30;67932;50.474;4.436;2023-05-07T08:12:22;14.63;92.65
78611;SHT30;67932;50.474;4.436;2023-05-07T08:14:48;14.67;92.22
78611;SHT30;67932;50.474;4.436;2023-05-07T08:17:15;14.75;91.45
78611;SHT30;67932;50.474;4.436;2023-05-07T08:19:42;14.79;91.39
78611;SHT30;67932;50.474;4.436;2023-05-07T08:22:10;14.83;91.37
78611;SHT30;67932;50.474;4.436;2023-05-07T08:24:36;14.89;90.98
78611;SHT30;67932;50.474;4.436;2023-05-07T08:27:03;14.93;90.94
78611;SHT30;67932;50.474;4.436;2023-05-07T08:29:29;14.97;90.79
78611;SHT30;67932;50.474;4.436;2023-05-07T08:31:55;14.96;90.80
78611;SHT30;67932;50.474;4.436;2023-05-07T08:34:22;14.93;91.46
78611;SHT30;67932;50.474;4.436;2023-05-07T08:36:48;14.84;90.57
78611;SHT30;67932;50.474;4.436;2023-05-07T08:39:18;14.99;91.20
78611;SHT30;67932;50.474;4.436;2023-05-07T08:41:49;15.03;90.87
78611;SHT30;67932;50.474;4.436;2023-05-07T08:44:17;15.12;90.86
78611;SHT30;67932;50.474;4.436;2023-05-07T08:46:47;15.12;90.77
78611;SHT30;67932;50.474;4.436;2023-05-07T08:49:15;15.20;90.89
78611;SHT30;67932;50.474;4.436;2023-05-07T08:51:42;15.17;91.19
78611;SHT30;67932;50.474;4.436;2023-05-07T08:54:09;15.21;91.16
78611;SHT30;67932;50.474;4.436;2023-05-07T08:56:36;15.07;91.17
78611;SHT30;67932;50.474;4.436;2023-05-07T08:59:02;15.06;91.74
78611;SHT30;67932;50.474;4.436;2023-05-07T09:01:29;15.01;92.43
78611;SHT30;67932;50.474;4.436;2023-05-07T09:03:55;15.12;92.28
78611;SHT30;67932;50.474;4.436;2023-05-07T09:06:22;15.06;92.34
78611;SHT30;67932;50.474;4.436;2023-05-07T09:08:53;15.03;92.50
78611;SHT30;67932;50.474;4.436;2023-05-07T09:11:23;15.04;92.61
78611;SHT30;67932;50.474;4.436;2023-05-07T09:13:54;14.97;92.72
78611;SHT30;67932;50.474;4.436;2023-05-07T09:16:22;14.97;92.61
78611;SHT30;67932;50.474;4.436;2023-05-07T09:18:51;14.94;92.77
78611;SHT30;67932;50.474;4.436;2023-05-07T09:21:19;14.89;92.78
78611;SHT30;67932;50.474;4.436;2023-05-07T09:23:47;14.89;92.63
78611;SHT30;67932;50.474;4.436;2023-05-07T09:26:14;14.91;92.79
78611;SHT30;67932;50.474;4.436;2023-05-07T09:28:41;14.91;92.83
78611;SHT30;67932;50.474;4.436;2023-05-07T09:31:09;14.90;92.93
78611;SHT30;67932;50.474;4.436;2023-05-07T09:33:36;14.97;92.54
78611;SHT30;67932;50.474;4.436;2023-05-07T09:36:06;15.00;91.85
78611;SHT30;67932;50.474;4.436;2023-05-07T09:38:34;14.96;91.18
78611;SHT30;67932;50.474;4.436;2023-05-07T09:41:11;15.01;91.69
78611;SHT30;67932;50.474;4.436;2023-05-07T09:43:39;15.03;91.32
78611;SHT30;67932;50.474;4.436;2023-05-07T09:46:12;15.04;92.01
78611;SHT30;67932;50.474;4.436;2023-05-07T09:48:41;15.03;91.98
78611;SHT30;67932;50.474;4.436;2023-05-07T09:51:28;15.03;91.83
78611;SHT30;67932;50.474;4.436;2023-05-07T09:53:56;14.97;91.46
78611;SHT30;67932;50.474;4.436;2023-05-07T09:56:23;14.99;91.54
78611;SHT30;67932;50.474;4.436;2023-05-07T09:58:52;15.06;91.94
78611;SHT30;67932;50.474;4.436;2023-05-07T10:01:20;15.03;91.78
78611;SHT30;67932;50.474;4.436;2023-05-07T10:03:50;15.08;91.70
78611;SHT30;67932;50.474;4.436;2023-05-07T10:06:17;14.99;91.18
78611;SHT30;67932;50.474;4.436;2023-05-07T10:08:44;15.03;91.40
78611;SHT30;67932;50.474;4.436;2023-05-07T10:11:11;15.10;91.78
78611;SHT30;67932;50.474;4.436;2023-05-07T10:13:38;15.06;91.41
78611;SHT30;67932;50.474;4.436;2023-05-07T10:16:05;15.06;92.03
78611;SHT30;67932;50.474;4.436;2023-05-07T10:18:32;15.03;91.78
78611;SHT30;67932;50.474;4.436;2023-05-07T10:21:08;15.11;92.31
78611;SHT30;67932;50.474;4.436;2023-05-07T10:23:37;15.14;91.98
78611;SHT30;67932;50.474;4.436;2023-05-07T10:26:06;15.12;91.74
78611;SHT30;67932;50.474;4.436;2023-05-07T10:28:37;15.10;91.90
78611;SHT30;67932;50.474;4.436;2023-05-07T10:33:51;15.24;91.80
78611;SHT30;67932;50.474;4.436;2023-05-07T10:36:18;15.21;91.49
78611;SHT30;67932;50.474;4.436;2023-05-07T10:38:45;15.30;92.10
78611;SHT30;67932;50.474;4.436;2023-05-07T10:41:12;15.23;91.15
78611;SHT30;67932;50.474;4.436;2023-05-07T10:43:44;15.24;91.40
78611;SHT30;67932;50.474;4.436;2023-05-07T10:46:13;15.30;91.85
78611;SHT30;67932;50.474;4.436;2023-05-07T10:51:32;15.20;90.84
78611;SHT30;67932;50.474;4.436;2023-05-07T10:56:38;15.23;90.11
78611;SHT30;67932;50.474;4.436;2023-05-07T11:02:04;15.34;90.32
78611;SHT30;67932;50.474;4.436;2023-05-07T11:04:32;15.31;91.11
78611;SHT30;67932;50.474;4.436;2023-05-07T11:10:03;15.44;90.68
78611;SHT30;67932;50.474;4.436;2023-05-07T11:17:54;15.54;91.26
78611;SHT30;67932;50.474;4.436;2023-05-07T11:20:43;15.68;90.62
78611;SHT30;67932;50.474;4.436;2023-05-07T11:26:03;15.75;90.54
78611;SHT30;67932;50.474;4.436;2023-05-07T11:28:31;15.77;89.88
78611;SHT30;67932;50.474;4.436;2023-05-07T11:30:57;15.85;90.61
78611;SHT30;67932;50.474;4.436;2023-05-07T11:33:24;15.85;90.08
78611;SHT30;67932;50.474;4.436;2023-05-07T11:35:54;15.88;89.77
78611;SHT30;67932;50.474;4.436;2023-05-07T11:38:21;15.96;90.45
78611;SHT30;67932;50.474;4.436;2023-05-07T11:40:58;15.91;88.87
78611;SHT30;67932;50.474;4.436;2023-05-07T11:43:28;15.84;89.61
78611;SHT30;67932;50.474;4.436;2023-05-07T11:45:54;15.89;89.62
78611;SHT30;67932;50.474;4.436;2023-05-07T11:48:22;15.94;89.55
78611;SHT30;67932;50.474;4.436;2023-05-07T11:51:02;15.96;90.12
78611;SHT30;67932;50.474;4.436;2023-05-07T11:53:38;15.94;89.40
78611;SHT30;67932;50.474;4.436;2023-05-07T11:56:13;15.91;90.37
78611;SHT30;67932;50.474;4.436;2023-05-07T11:58:40;15.82;90.07
78611;SHT30;67932;50.474;4.436;2023-05-07T12:01:11;15.82;89.84
78611;SHT30;67932;50.474;4.436;2023-05-07T12:03:41;15.88;89.98
78611;SHT30;67932;50.474;4.436;2023-05-07T12:06:17;15.86;89.02
78611;SHT30;67932;50.474;4.436;2023-05-07T12:08:45;15.89;88.28
78611;SHT30;67932;50.474;4.436;2023-05-07T12:11:21;15.99;88.41
78611;SHT30;67932;50.474;4.436;2023-05-07T12:13:48;15.99;89.07
78611;SHT30;67932;50.474;4.436;2023-05-07T12:16:14;16.06;88.31
78611;SHT30;67932;50.474;4.436;2023-05-07T12:18:41;16.04;86.93
78611;SHT30;67932;50.474;4.436;2023-05-07T12:21:08;16.08;86.46
78611;SHT30;67932;50.474;4.436;2023-05-07T12:23:35;16.10;88.22
78611;SHT30;67932;50.474;4.436;2023-05-07T12:26:02;16.08;86.71
78611;SHT30;67932;50.474;4.436;2023-05-07T12:28:28;16.13;87.82
78611;SHT30;67932;50.474;4.436;2023-05-07T12:30:56;16.12;85.67
78611;SHT30;67932;50.474;4.436;2023-05-07T12:33:26;16.08;85.85
78611;SHT30;67932;50.474;4.436;2023-05-07T12:35:55;16.13;85.44
78611;SHT30;67932;50.474;4.436;2023-05-07T12:38:22;16.05;87.08
78611;SHT30;67932;50.474;4.436;2023-05-07T12:40:50;15.95;87.98
78611;SHT30;67932;50.474;4.436;2023-05-07T12:43:27;15.91;85.79
78611;SHT30;67932;50.474;4.436;2023-05-07T12:45:58;15.95;87.80
78611;SHT30;67932;50.474;4.436;2023-05-07T12:48:26;15.92;88.59
78611;SHT30;67932;50.474;4.436;2023-05-07T12:50:56;15.88;89.23
78611;SHT30;67932;50.474;4.436;2023-05-07T12:53:26;16.01;89.62
78611;SHT30;67932;50.474;4.436;2023-05-07T12:55:55;16.10;87.88
78611;SHT30;67932;50.474;4.436;2023-05-07T12:58:29;16.02;87.72
78611;SHT30;67932;50.474;4.436;2023-05-07T13:00:56;16.08;87.45
78611;SHT30;67932;50.474;4.436;2023-05-07T13:03:50;16.20;88.63
78611;SHT30;67932;50.474;4.436;2023-05-07T13:06:16;16.27;89.20
78611;SHT30;67932;50.474;4.436;2023-05-07T13:08:43;16.22;88.36
78611;SHT30;67932;50.474;4.436;2023-05-07T13:11:10;16.16;89.23
78611;SHT30;67932;50.474;4.436;2023-05-07T13:13:39;16.13;86.97
78611;SHT30;67932;50.474;4.436;2023-05-07T13:16:07;16.22;86.99
78611;SHT30;67932;50.474;4.436;2023-05-07T13:18:34;16.19;85.32
78611;SHT30;67932;50.474;4.436;2023-05-07T13:21:01;16.32;86.21
78611;SHT30;67932;50.474;4.436;2023-05-07T13:23:28;16.34;86.35
78611;SHT30;67932;50.474;4.436;2023-05-07T13:25:54;16.27;85.66
78611;SHT30;67932;50.474;4.436;2023-05-07T13:28:22;16.30;85.85
78611;SHT30;67932;50.474;4.436;2023-05-07T13:30:49;16.32;85.88
78611;SHT30;67932;50.474;4.436;2023-05-07T13:33:18;16.25;87.17
78611;SHT30;67932;50.474;4.436;2023-05-07T13:35:44;16.27;88.27
78611;SHT30;67932;50.474;4.436;2023-05-07T13:38:11;16.27;88.55
78611;SHT30;67932;50.474;4.436;2023-05-07T13:40:37;16.22;87.63
78611;SHT30;67932;50.474;4.436;2023-05-07T13:43:06;16.22;87.06
78611;SHT30;67932;50.474;4.436;2023-05-07T13:45:32;16.16;87.55
78611;SHT30;67932;50.474;4.436;2023-05-07T13:47:58;16.20;88.61
78611;SHT30;67932;50.474;4.436;2023-05-07T13:50:25;16.15;88.44
78611;SHT30;67932;50.474;4.436;2023-05-07T13:52:53;16.17;89.19
78611;SHT30;67932;50.474;4.436;2023-05-07T13:55:20;16.06;88.60
78611;SHT30;67932;50.474;4.436;2023-05-07T13:57:47;15.99;88.63
78611;SHT30;67932;50.474;4.436;2023-05-07T14:00:14;16.06;89.16
78611;SHT30;67932;50.474;4.436;2023-05-07T14:02:42;15.96;88.17
78611;SHT30;67932;50.474;4.436;2023-05-07T14:05:08;16.08;89.03
78611;SHT30;67932;50.474;4.436;2023-05-07T14:07:36;16.04;89.73
78611;SHT30;67932;50.474;4.436;2023-05-07T14:10:02;16.01;89.03
78611;SHT30;67932;50.474;4.436;2023-05-07T14:12:28;15.99;89.01
78611;SHT30;67932;50.474;4.436;2023-05-07T14:14:55;15.91;88.45
78611;SHT30;67932;50.474;4.436;2023-05-07T14:17:22;15.88;88.90
78611;SHT30;67932;50.474;4.436;2023-05-07T14:19:51;15.91;88.85
78611;SHT30;67932;50.474;4.436;2023-05-07T14:22:21;15.99;89.82
78611;SHT30;67932;50.474;4.436;2023-05-07T14:24:48;15.96;89.08
78611;SHT30;67932;50.474;4.436;2023-05-07T14:27:15;15.96;86.75
78611;SHT30;67932;50.474;4.436;2023-05-07T14:29:41;15.99;86.97
78611;SHT30;67932;50.474;4.436;2023-05-07T14:32:08;16.10;87.84
78611;SHT30;67932;50.474;4.436;2023-05-07T14:34:35;16.05;85.98
78611;SHT30;67932;50.474;4.436;2023-05-07T14:37:01;16.20;86.45
78611;SHT30;67932;50.474;4.436;2023-05-07T14:39:27;16.09;86.71
78611;SHT30;67932;50.474;4.436;2023-05-07T14:41:54;16.23;87.76
78611;SHT30;67932;50.474;4.436;2023-05-07T14:44:21;16.25;86.46
78611;SHT30;67932;50.474;4.436;2023-05-07T14:46:47;16.32;85.89
78611;SHT30;67932;50.474;4.436;2023-05-07T14:49:14;16.33;86.14
78611;SHT30;67932;50.474;4.436;2023-05-07T14:51:46;16.30;85.92
78611;SHT30;67932;50.474;4.436;2023-05-07T14:54:13;16.33;85.23
78611;SHT30;67932;50.474;4.436;2023-05-07T14:56:40;16.61;85.33
78611;SHT30;67932;50.474;4.436;2023-05-07T14:59:08;16.81;84.87
78611;SHT30;67932;50.474;4.436;2023-05-07T15:01:37;16.83;84.12
78611;SHT30;67932;50.474;4.436;2023-05-07T15:04:04;16.81;84.51
78611;SHT30;67932;50.474;4.436;2023-05-07T15:06:31;16.88;83.94
78611;SHT30;67932;50.474;4.436;2023-05-07T15:08:58;17.04;82.42
78611;SHT30;67932;50.474;4.436;2023-05-07T15:11:24;17.06;80.64
78611;SHT30;67932;50.474;4.436;2023-05-07T15:13:50;17.21;82.58
78611;SHT30;67932;50.474;4.436;2023-05-07T15:16:16;17.23;82.85
78611;SHT30;67932;50.474;4.436;2023-05-07T15:18:43;17.39;82.40
78611;SHT30;67932;50.474;4.436;2023-05-07T15:21:10;17.52;82.75
78611;SHT30;67932;50.474;4.436;2023-05-07T15:23:36;17.56;82.07
78611;SHT30;67932;50.474;4.436;2023-05-07T15:26:03;17.64;81.07
78611;SHT30;67932;50.474;4.436;2023-05-07T15:28:29;17.49;78.72
78611;SHT30;67932;50.474;4.436;2023-05-07T15:30:56;17.44;80.54
78611;SHT30;67932;50.474;4.436;2023-05-07T15:33:23;17.79;79.92
78611;SHT30;67932;50.474;4.436;2023-05-07T15:35:49;18.03;78.61
78611;SHT30;67932;50.474;4.436;2023-05-07T15:38:15;18.16;78.66
78611;SHT30;67932;50.474;4.436;2023-05-07T15:40:42;18.68;79.26
78611;SHT30;67932;50.474;4.436;2023-05-07T15:43:09;19.59;74.49
78611;SHT30;67932;50.474;4.436;2023-05-07T15:45:43;19.92;71.83
78611;SHT30;67932;50.474;4.436;2023-05-07T15:48:10;19.62;71.54
78611;SHT30;67932;50.474;4.436;2023-05-07T15:50:37;20.39;71.69
78611;SHT30;67932;50.474;4.436;2023-05-07T15:53:04;20.24;70.16